createdAt,value
2023-04-04T00:01:49.620Z,63.69
2023-04-04T00:04:57.164Z,63.65
2023-04-04T00:08:03.291Z,63.85
2023-04-04T00:11:17.602Z,63.89
2023-04-04T00:14:25.441Z,64.20
2023-04-04T00:17:32.247Z,64.31
2023-04-04T00:20:39.013Z,64.61
2023-04-04T00:23:45.954Z,64.65
2023-04-04T00:26:54.578Z,64.91
2023-04-04T00:30:04.764Z,65.10
2023-04-04T00:33:10.947Z,65.07
2023-04-04T00:36:18.965Z,65.22
2023-04-04T00:39:26.782Z,65.45
2023-04-04T00:42:37.753Z,65.63
2023-04-04T00:45:44.694Z,65.67
2023-04-04T00:48:54.541Z,65.85
2023-04-04T00:52:00.549Z,66.18
2023-04-04T00:55:20.898Z,65.71
2023-04-04T00:58:30.580Z,66.06
2023-04-04T01:01:38.944Z,66.26
2023-04-04T01:04:51.963Z,66.33
2023-04-04T01:07:59.171Z,66.21
2023-04-04T01:11:05.727Z,66.44
2023-04-04T01:14:15.964Z,66.37
2023-04-04T01:17:23.124Z,66.46
2023-04-04T01:20:37.276Z,66.45
2023-04-04T01:24:05.185Z,66.76
2023-04-04T01:27:30.079Z,67.01
2023-04-04T01:30:49.191Z,67.10
2023-04-04T01:34:08.141Z,67.12
2023-04-04T01:37:33.386Z,67.39
2023-04-04T01:40:47.837Z,67.57
2023-04-04T01:43:57.598Z,67.59
2023-04-04T01:47:08.955Z,67.88
2023-04-04T01:50:15.773Z,67.97
2023-04-04T01:53:23.402Z,68.36
2023-04-04T01:56:29.475Z,68.20
2023-04-04T01:59:41.555Z,68.45
2023-04-04T02:02:47.890Z,68.44
2023-04-04T02:05:56.402Z,68.81
2023-04-04T02:09:02.933Z,68.77
2023-04-04T02:12:12.195Z,69.12
2023-04-04T02:15:24.227Z,69.03
2023-04-04T02:18:37.355Z,68.96
2023-04-04T02:21:57.774Z,68.99
2023-04-04T02:25:12.987Z,69.40
2023-04-04T02:28:18.940Z,69.37
2023-04-04T02:31:32.600Z,69.34
2023-04-04T02:34:39.037Z,69.61
2023-04-04T02:37:49.841Z,69.40
2023-04-04T02:41:05.393Z,69.50
2023-04-04T02:44:12.903Z,69.30
2023-04-04T02:47:24.440Z,69.34
2023-04-04T02:50:31.290Z,69.04
2023-04-04T02:53:40.098Z,69.04
2023-04-04T02:57:01.747Z,69.05
2023-04-04T03:00:10.191Z,69.18
2023-04-04T03:03:20.635Z,68.95
2023-04-04T03:06:37.983Z,68.68
2023-04-04T03:09:47.731Z,68.89
2023-04-04T03:12:53.890Z,68.73
2023-04-04T03:16:10.559Z,69.18
2023-04-04T03:19:28.298Z,68.80
2023-04-04T03:22:36.389Z,69.03
2023-04-04T03:25:42.585Z,68.74
2023-04-04T03:28:49.571Z,69.06
2023-04-04T03:32:18.481Z,68.75
2023-04-04T03:35:28.351Z,68.90
2023-04-04T03:38:34.544Z,68.74
2023-04-04T03:41:50.178Z,68.89
2023-04-04T03:44:56.513Z,69.18
2023-04-04T03:48:14.093Z,69.10
2023-04-04T03:51:27.713Z,68.84
2023-04-04T03:54:42.202Z,69.03
2023-04-04T03:57:49.566Z,69.07
2023-04-04T04:00:57.551Z,68.99
2023-04-04T04:04:08.453Z,69.00
2023-04-04T04:07:19.514Z,69.03
2023-04-04T04:10:25.819Z,68.64
2023-04-04T04:13:32.893Z,68.89
2023-04-04T04:16:43.451Z,68.90
2023-04-04T04:19:54.238Z,68.81
2023-04-04T04:23:04.393Z,69.17
2023-04-04T04:26:11.284Z,68.83
2023-04-04T04:29:17.418Z,69.00
2023-04-04T04:32:33.923Z,69.11
2023-04-04T04:35:41.317Z,69.09
2023-04-04T04:38:56.289Z,69.61
2023-04-04T04:42:06.086Z,69.78
2023-04-04T04:45:16.507Z,69.91
2023-04-04T04:48:27.453Z,69.77
2023-04-04T04:51:37.793Z,69.86
2023-04-04T04:54:56.285Z,69.79
2023-04-04T04:58:04.706Z,69.21
2023-04-04T05:01:11.662Z,69.24
2023-04-04T05:04:22.773Z,68.99
2023-04-04T05:07:51.768Z,68.91
2023-04-04T05:11:02.697Z,68.47
2023-04-04T05:14:11.765Z,68.56
2023-04-04T05:17:37.190Z,68.03
2023-04-04T05:20:46.804Z,67.63
2023-04-04T05:23:54.196Z,67.60
2023-04-04T05:27:07.888Z,66.80
2023-04-04T05:30:21.135Z,66.58
2023-04-04T05:33:40.292Z,66.46
2023-04-04T05:36:56.738Z,65.80
2023-04-04T05:40:03.302Z,64.92
2023-04-04T05:43:12.936Z,64.08
2023-04-04T05:46:33.187Z,63.90
2023-04-04T05:49:40.092Z,62.60
2023-04-04T05:52:46.299Z,60.87
2023-04-04T05:55:56.021Z,60.77
2023-04-04T05:59:22.343Z,58.06
2023-04-04T06:02:46.663Z,55.08
2023-04-04T06:05:57.453Z,56.22
2023-04-04T06:09:05.805Z,56.98
2023-04-04T06:12:14.355Z,55.49
2023-04-04T06:15:24.846Z,54.08
2023-04-04T06:18:31.746Z,52.98
2023-04-04T06:21:39.157Z,50.86
2023-04-04T06:24:45.392Z,49.03
2023-04-04T06:27:54.427Z,47.08
2023-04-04T06:31:03.230Z,47.68
2023-04-04T06:34:15.289Z,47.40
2023-04-04T06:37:35.796Z,45.52
2023-04-04T06:40:50.753Z,45.81
2023-04-04T06:44:03.215Z,43.32
2023-04-04T06:47:29.224Z,42.83
2023-04-04T06:50:35.474Z,40.59
2023-04-04T06:53:45.068Z,38.74
2023-04-04T06:56:52.045Z,40.33
2023-04-04T07:00:11.506Z,40.16
2023-04-04T07:03:27.232Z,40.98
2023-04-04T07:06:34.112Z,41.57
2023-04-04T07:09:40.201Z,41.85
2023-04-04T07:12:47.051Z,40.96
2023-04-04T07:15:59.315Z,38.63
2023-04-04T07:19:08.855Z,38.43
2023-04-04T07:22:21.837Z,37.30
2023-04-04T07:25:31.922Z,37.99
2023-04-04T07:28:37.901Z,37.28
2023-04-04T07:31:45.091Z,38.36
2023-04-04T07:34:53.961Z,39.65
2023-04-04T07:38:07.215Z,38.83
2023-04-04T07:41:16.602Z,41.08
2023-04-04T07:44:23.582Z,40.61
2023-04-04T07:47:29.633Z,39.49
2023-04-04T07:50:39.208Z,38.95
2023-04-04T07:53:45.267Z,37.49
2023-04-04T07:56:51.992Z,36.33
2023-04-04T07:59:58.057Z,35.89
2023-04-04T08:03:05.012Z,35.94
2023-04-04T08:06:13.761Z,35.60
2023-04-04T08:09:20.586Z,34.13
2023-04-04T08:12:26.644Z,32.60
2023-04-04T08:15:33.326Z,33.50
2023-04-04T08:18:40.975Z,33.72
2023-04-04T08:21:50.408Z,34.22
2023-04-04T08:24:59.036Z,32.36
2023-04-04T08:28:07.248Z,32.98
2023-04-04T08:31:13.520Z,36.69
2023-04-04T08:34:21.077Z,35.73
2023-04-04T08:37:31.450Z,34.74
2023-04-04T08:40:38.896Z,35.71
2023-04-04T08:43:54.774Z,36.04
2023-04-04T08:47:05.778Z,36.55
2023-04-04T08:50:12.345Z,35.28
2023-04-04T08:53:23.516Z,35.95
2023-04-04T08:56:30.126Z,37.67
2023-04-04T08:59:37.445Z,34.85
2023-04-04T09:02:58.330Z,35.41
2023-04-04T09:06:07.689Z,35.30
2023-04-04T09:09:18.883Z,37.77
2023-04-04T09:12:27.876Z,38.84
2023-04-04T09:15:38.717Z,39.15
2023-04-04T09:18:45.535Z,38.25
2023-04-04T09:21:52.238Z,37.39
2023-04-04T09:25:01.810Z,37.09
2023-04-04T09:28:08.700Z,37.38
2023-04-04T09:31:17.643Z,37.18
2023-04-04T09:34:24.314Z,37.55
2023-04-04T09:37:31.473Z,38.51
2023-04-04T09:40:44.246Z,38.35
2023-04-04T09:43:51.554Z,36.82
2023-04-04T09:47:30.955Z,37.18
2023-04-04T09:50:41.757Z,37.26
2023-04-04T09:53:52.224Z,36.89
2023-04-04T09:57:02.087Z,36.23
2023-04-04T10:00:11.585Z,34.27
2023-04-04T10:03:21.244Z,34.89
2023-04-04T10:06:27.556Z,35.27
2023-04-04T10:09:34.542Z,35.90
2023-04-04T10:12:43.170Z,36.86
2023-04-04T10:15:51.098Z,36.10
2023-04-04T10:18:57.619Z,36.25
2023-04-04T10:22:08.199Z,36.32
2023-04-04T10:25:14.533Z,36.09
2023-04-04T10:28:25.115Z,37.92
2023-04-04T10:31:37.608Z,36.18
2023-04-04T10:34:56.972Z,36.21
2023-04-04T10:38:08.675Z,36.15
2023-04-04T10:41:18.003Z,35.75
2023-04-04T10:44:34.229Z,36.45
2023-04-04T10:47:43.412Z,36.66
2023-04-04T10:50:52.069Z,36.85
2023-04-04T10:53:59.651Z,35.44
2023-04-04T10:57:06.200Z,36.36
2023-04-04T11:00:19.744Z,37.78
2023-04-04T11:03:26.422Z,38.31
2023-04-04T11:07:17.650Z,38.96
2023-04-04T11:10:28.608Z,38.14
2023-04-04T11:13:40.211Z,38.83
2023-04-04T11:16:55.796Z,36.87
2023-04-04T11:20:06.960Z,36.85
2023-04-04T11:23:23.223Z,36.41
2023-04-04T11:26:39.928Z,34.92
2023-04-04T11:29:56.077Z,33.45
2023-04-04T11:33:08.178Z,33.36
2023-04-04T11:36:47.759Z,35.41
2023-04-04T11:39:59.336Z,36.23
2023-04-04T11:43:11.154Z,36.02
2023-04-04T11:46:21.517Z,34.70
2023-04-04T11:49:38.481Z,34.82
2023-04-04T11:52:46.563Z,33.34
2023-04-04T11:55:55.063Z,33.80
2023-04-04T11:59:11.026Z,35.45
2023-04-04T12:02:23.832Z,36.63
2023-04-04T12:05:34.410Z,37.26
2023-04-04T12:08:40.845Z,37.69
2023-04-04T12:11:48.624Z,38.85
2023-04-04T12:15:06.762Z,39.26
2023-04-04T12:18:26.836Z,38.45
2023-04-04T12:21:37.484Z,38.44
2023-04-04T12:24:44.464Z,36.58
2023-04-04T12:27:52.973Z,37.43
2023-04-04T12:31:05.586Z,38.34
2023-04-04T12:34:19.949Z,40.12
2023-04-04T12:37:33.500Z,41.00
2023-04-04T12:40:42.183Z,40.31
2023-04-04T12:43:50.338Z,39.57
2023-04-04T12:47:00.947Z,39.05
2023-04-04T12:50:12.186Z,40.11
2023-04-04T12:56:35.839Z,41.65
2023-04-04T12:59:42.537Z,41.85
2023-04-04T13:02:53.501Z,42.56
2023-04-04T13:06:01.634Z,43.02
2023-04-04T13:09:21.169Z,42.74
2023-04-04T13:12:27.563Z,42.42
2023-04-04T13:15:54.787Z,42.98
2023-04-04T13:19:01.228Z,43.16
2023-04-04T13:22:12.602Z,41.97
2023-04-04T13:25:21.584Z,41.07
2023-04-04T13:28:28.609Z,41.46
2023-04-04T13:31:34.769Z,40.13
2023-04-04T13:34:41.742Z,39.50
2023-04-04T13:37:47.803Z,39.41
2023-04-04T13:40:57.659Z,39.35
2023-04-04T13:44:03.915Z,39.67
2023-04-04T13:47:10.828Z,41.40
2023-04-04T13:50:17.160Z,42.57
2023-04-04T13:53:24.263Z,41.95
2023-04-04T13:56:32.979Z,41.80
2023-04-04T13:59:39.871Z,41.66
2023-04-04T14:02:47.004Z,41.60
2023-04-04T14:05:54.045Z,41.45
2023-04-04T14:09:00.051Z,41.62
2023-04-04T14:12:10.088Z,42.67
2023-04-04T14:15:16.230Z,42.50
2023-04-04T14:18:23.157Z,42.17
2023-04-04T14:21:29.201Z,42.25
2023-04-04T14:24:35.998Z,42.55
2023-04-04T14:27:46.497Z,43.37
2023-04-04T14:30:54.165Z,42.80
2023-04-04T14:34:00.505Z,43.30
2023-04-04T14:37:07.796Z,43.24
2023-04-04T14:40:14.530Z,42.37
2023-04-04T14:43:26.246Z,43.28
2023-04-04T14:46:34.268Z,43.77
2023-04-04T14:49:41.053Z,43.80
2023-04-04T14:52:48.101Z,43.71
2023-04-04T14:55:55.637Z,44.20
2023-04-04T14:59:06.059Z,44.68
2023-04-04T15:02:12.854Z,42.84
2023-04-04T15:05:19.493Z,42.88
2023-04-04T15:08:26.759Z,42.96
2023-04-04T15:11:33.396Z,43.64
2023-04-04T15:14:43.112Z,44.35
2023-04-04T15:17:51.179Z,44.69
2023-04-04T15:21:00.372Z,43.96
2023-04-04T15:24:06.495Z,45.24
2023-04-04T15:27:15.574Z,45.33
2023-04-04T15:30:29.566Z,44.26
2023-04-04T15:33:39.349Z,44.11
2023-04-04T15:36:45.451Z,43.59
2023-04-04T15:39:55.048Z,44.54
2023-04-04T15:43:01.573Z,44.33
2023-04-04T15:46:14.371Z,44.32
2023-04-04T15:49:20.417Z,44.37
2023-04-04T15:52:27.450Z,44.93
2023-04-04T15:55:33.472Z,44.68
2023-04-04T15:58:40.219Z,45.15
2023-04-04T16:01:49.222Z,44.67
2023-04-04T16:04:56.225Z,44.22
2023-04-04T16:08:03.412Z,43.63
2023-04-04T16:11:10.195Z,43.45
2023-04-04T16:14:16.339Z,44.05
2023-04-04T16:17:26.434Z,44.02
2023-04-04T16:20:33.246Z,44.33
2023-04-04T16:23:40.118Z,44.74
2023-04-04T16:26:47.737Z,44.71
2023-04-04T16:29:54.553Z,45.08
2023-04-04T16:33:10.453Z,45.82
2023-04-04T16:36:17.512Z,45.63
2023-04-04T16:39:23.483Z,45.37
2023-04-04T16:42:30.449Z,45.20
2023-04-04T16:45:36.499Z,45.04
2023-04-04T16:48:46.314Z,44.44
2023-04-04T16:51:52.312Z,45.04
2023-04-04T16:54:59.192Z,45.29
2023-04-04T16:58:05.366Z,45.56
2023-04-04T17:01:15.404Z,45.63
2023-04-04T17:04:24.008Z,45.80
2023-04-04T17:07:31.119Z,45.74
2023-04-04T17:10:40.818Z,45.90
2023-04-04T17:13:47.988Z,46.17
2023-04-04T17:16:54.577Z,46.38
2023-04-04T17:20:08.642Z,46.38
2023-04-04T17:23:17.425Z,46.85
2023-04-04T17:26:40.068Z,47.19
2023-04-04T17:29:46.414Z,46.66
2023-04-04T17:32:55.683Z,46.31
2023-04-04T17:36:06.586Z,46.40
2023-04-04T17:39:15.773Z,46.06
2023-04-04T17:42:21.778Z,46.18
2023-04-04T17:45:39.382Z,46.75
2023-04-04T17:48:49.971Z,46.69
2023-04-04T17:52:21.456Z,46.48
2023-04-04T17:55:42.201Z,46.30
2023-04-04T17:58:49.990Z,45.83
2023-04-04T18:01:57.326Z,45.67
2023-04-04T18:05:04.457Z,45.59
2023-04-04T18:08:14.236Z,46.07
2023-04-04T18:11:21.256Z,46.74
2023-04-04T18:14:30.231Z,46.61
2023-04-04T18:17:37.203Z,45.96
2023-04-04T18:20:43.609Z,46.73
2023-04-04T18:23:53.365Z,46.66
2023-04-04T18:26:59.971Z,46.66
2023-04-04T18:30:07.839Z,46.76
2023-04-04T18:33:15.277Z,46.71
2023-04-04T18:36:22.271Z,46.92
2023-04-04T18:39:31.337Z,47.11
2023-04-04T18:42:38.980Z,46.73
2023-04-04T18:45:47.119Z,47.59
2023-04-04T18:48:54.286Z,47.11
2023-04-04T18:52:01.218Z,47.33
2023-04-04T18:55:12.721Z,47.34
2023-04-04T18:58:18.810Z,47.78
2023-04-04T19:01:26.028Z,47.84
2023-04-04T19:04:38.788Z,47.99
2023-04-04T19:07:49.732Z,48.60
2023-04-04T19:11:03.571Z,48.83
2023-04-04T19:14:10.547Z,48.64
2023-04-04T19:17:18.522Z,49.03
2023-04-04T19:20:35.064Z,49.43
2023-04-04T19:23:41.474Z,49.35
2023-04-04T19:26:59.367Z,49.89
2023-04-04T19:30:14.640Z,50.02
2023-04-04T19:33:26.103Z,49.87
2023-04-04T19:36:40.867Z,50.15
2023-04-04T19:39:53.789Z,50.34
2023-04-04T19:43:04.342Z,50.22
2023-04-04T19:46:14.434Z,50.63
2023-04-04T19:49:21.086Z,50.84
2023-04-04T19:52:41.455Z,50.97
2023-04-04T19:55:47.738Z,51.09
2023-04-04T19:59:08.095Z,51.45
2023-04-04T20:02:58.286Z,51.29
2023-04-04T20:06:12.661Z,51.47
2023-04-04T20:09:40.341Z,51.38
2023-04-04T20:12:56.674Z,51.42
2023-04-04T20:16:12.356Z,51.44
2023-04-04T20:19:32.615Z,51.47
2023-04-04T20:22:38.871Z,51.84
2023-04-04T20:25:47.399Z,51.89
2023-04-04T20:28:53.433Z,51.92
2023-04-04T20:32:05.714Z,52.13
2023-04-04T20:35:29.286Z,52.39
2023-04-04T20:38:36.627Z,52.34
2023-04-04T20:41:45.783Z,52.64
2023-04-04T20:44:52.729Z,53.08
2023-04-04T20:48:06.789Z,52.81
2023-04-04T20:51:30.182Z,52.87
2023-04-04T20:54:39.672Z,52.89
2023-04-04T20:57:48.543Z,52.98
2023-04-04T21:00:54.752Z,53.00
2023-04-04T21:04:04.275Z,53.20
2023-04-04T21:07:10.447Z,53.45
2023-04-04T21:10:27.636Z,54.28
2023-04-04T21:13:39.402Z,54.23
2023-04-04T21:16:46.301Z,54.43
2023-04-04T21:20:07.442Z,54.81
2023-04-04T21:23:36.361Z,54.97
2023-04-04T21:26:51.448Z,54.95
2023-04-04T21:29:58.440Z,55.36
2023-04-04T21:33:04.646Z,55.54
2023-04-04T21:36:27.749Z,55.58
2023-04-04T21:39:35.350Z,55.55
2023-04-04T21:42:42.163Z,55.56
2023-04-04T21:45:48.482Z,55.99
2023-04-04T21:48:56.283Z,56.50
2023-04-04T21:52:05.024Z,56.90
2023-04-04T21:55:15.321Z,56.89
2023-04-04T21:58:23.605Z,56.99
2023-04-04T22:01:31.286Z,57.01
2023-04-04T22:04:37.442Z,57.24
2023-04-04T22:07:47.218Z,57.51
2023-04-04T22:10:53.281Z,57.72
2023-04-04T22:14:07.846Z,58.07
2023-04-04T22:17:23.153Z,57.92
2023-04-04T22:20:29.958Z,58.28
2023-04-04T22:23:40.600Z,58.42
2023-04-04T22:26:47.693Z,58.41
2023-04-04T22:29:53.671Z,58.57
2023-04-04T22:33:03.783Z,58.66
2023-04-04T22:36:11.303Z,58.94
2023-04-04T22:39:20.952Z,58.43
2023-04-04T22:42:27.218Z,58.56
2023-04-04T22:45:34.790Z,58.57
2023-04-04T22:48:41.637Z,58.75
2023-04-04T22:51:48.535Z,58.68
2023-04-04T22:54:57.161Z,58.61
2023-04-04T22:58:04.987Z,58.49
2023-04-04T23:01:11.200Z,58.50
2023-04-04T23:04:18.203Z,58.99
2023-04-04T23:07:24.243Z,59.19
2023-04-04T23:10:34.676Z,59.57
2023-04-04T23:13:42.627Z,59.58
2023-04-04T23:16:53.065Z,60.11
2023-04-04T23:19:59.411Z,60.09
2023-04-04T23:23:06.312Z,60.24
2023-04-04T23:26:14.921Z,60.64
2023-04-04T23:29:21.757Z,60.62
2023-04-04T23:32:27.793Z,60.63
2023-04-04T23:35:34.730Z,60.75
2023-04-04T23:38:43.562Z,61.00
2023-04-04T23:41:52.960Z,60.88
2023-04-04T23:45:03.790Z,60.95
2023-04-04T23:48:11.139Z,61.23
2023-04-04T23:51:17.823Z,61.03
2023-04-04T23:54:24.582Z,60.59
2023-04-04T23:57:39.471Z,60.59
